Time;durP1;ratioP1;P1;durP2;ratioP2;P2;SDS_P1;SDS_P2;PMS_P1;PMS_P2;Temp;Humidity;BMP_temperature;BMP_pressure;BME280_temperature;BME280_humidity;BME280_pressure;Samples;Min_cycle;Max_cycle;Signal;HPM_P1;HPM_P2
2022/03/04 00:00:44;;;;;;;10.77;8.10;;;1.80;99.90;;;;;;4993646;28;20196;-77
2022/03/04 00:03:11;;;;;;;15.13;8.33;;;1.80;99.90;;;;;;5001357;28;20239;-77
2022/03/04 00:05:37;;;;;;;10.17;8.20;;;1.80;99.90;;;;;;4997317;28;20231;-75
2022/03/04 00:08:02;;;;;;;8.50;7.60;;;1.80;99.90;;;;;;5002291;28;20200;-72
2022/03/04 00:10:28;;;;;;;16.43;8.00;;;1.80;99.90;;;;;;4991966;28;20276;-73
2022/03/04 00:12:54;;;;;;;12.47;8.20;;;1.70;99.90;;;;;;4996448;28;20200;-70
2022/03/04 00:15:21;;;;;;;14.20;8.13;;;1.80;99.90;;;;;;4990115;28;20709;-69
2022/03/04 00:17:46;;;;;;;9.63;7.80;;;1.80;99.90;;;;;;4990996;28;20259;-69
2022/03/04 00:20:12;;;;;;;14.00;8.80;;;1.90;99.90;;;;;;4990159;28;20295;-67
2022/03/04 00:22:37;;;;;;;10.83;7.77;;;1.90;99.90;;;;;;4997538;28;20603;-69
2022/03/04 00:25:04;;;;;;;7.77;7.00;;;1.90;99.90;;;;;;4994546;28;20314;-74
2022/03/04 00:27:29;;;;;;;11.80;7.40;;;2.00;99.90;;;;;;5006631;28;20625;-73
2022/03/04 00:29:55;;;;;;;10.47;7.87;;;1.80;99.90;;;;;;4986312;28;20260;-73
2022/03/04 00:32:21;;;;;;;8.87;7.10;;;1.90;99.90;;;;;;4991498;28;20247;-73
2022/03/04 00:34:46;;;;;;;9.43;7.47;;;1.90;99.90;;;;;;4995038;28;20236;-73
2022/03/04 00:37:12;;;;;;;10.57;6.67;;;1.80;99.90;;;;;;5002616;28;20713;-74
2022/03/04 00:39:37;;;;;;;8.50;7.43;;;1.80;99.90;;;;;;4994028;28;20235;-73
2022/03/04 00:42:03;;;;;;;14.43;7.27;;;1.80;99.90;;;;;;5000003;28;20629;-72
2022/03/04 00:44:28;;;;;;;9.80;6.93;;;1.80;99.90;;;;;;4995098;28;20200;-72
2022/03/04 00:46:54;;;;;;;9.87;7.57;;;1.80;99.90;;;;;;4990825;28;20204;-73
2022/03/04 00:49:20;;;;;;;10.67;6.80;;;1.80;99.90;;;;;;4997399;28;20269;-73
2022/03/04 00:51:45;;;;;;;12.33;7.37;;;1.80;99.90;;;;;;4973459;28;20191;-73
2022/03/04 00:54:11;;;;;;;9.53;7.17;;;1.90;99.90;;;;;;4991245;28;20188;-73
2022/03/04 00:56:37;;;;;;;9.97;7.17;;;1.80;99.90;;;;;;4990241;28;20238;-72
2022/03/04 00:59:03;;;;;;;10.90;7.27;;;1.80;99.90;;;;;;4983559;28;20193;-73
2022/03/04 01:01:28;;;;;;;11.90;6.70;;;1.80;99.90;;;;;;4998030;28;20195;-73
2022/03/04 01:03:54;;;;;;;7.80;7.10;;;1.80;99.90;;;;;;4986805;28;20203;-73
2022/03/04 01:06:19;;;;;;;11.07;7.10;;;1.80;99.90;;;;;;4995696;28;20546;-72
2022/03/04 01:08:45;;;;;;;11.10;6.83;;;1.80;99.90;;;;;;4993228;28;20230;-73
2022/03/04 01:11:10;;;;;;;7.87;6.20;;;1.80;99.90;;;;;;4992704;28;20203;-72
2022/03/04 01:13:36;;;;;;;7.67;6.10;;;1.80;99.90;;;;;;4998924;28;20188;-72
2022/03/04 01:16:01;;;;;;;11.70;6.30;;;1.60;99.90;;;;;;4985772;28;20169;-72
2022/03/04 01:18:27;;;;;;;9.57;6.53;;;1.60;99.90;;;;;;4985168;28;20295;-72
2022/03/04 01:20:52;;;;;;;8.00;6.20;;;1.60;99.90;;;;;;4992772;28;20754;-73
2022/03/04 01:23:18;;;;;;;9.60;6.93;;;1.60;99.90;;;;;;4989446;28;20726;-73
2022/03/04 01:25:43;;;;;;;10.80;6.43;;;1.60;99.90;;;;;;4990252;28;20228;-71
2022/03/04 01:28:09;;;;;;;11.37;7.20;;;1.60;99.90;;;;;;4991779;28;20248;-72
2022/03/04 01:30:35;;;;;;;11.87;7.40;;;1.50;99.90;;;;;;4989830;28;20525;-71
2022/03/04 01:33:00;;;;;;;10.77;6.97;;;1.60;99.90;;;;;;4995162;28;20192;-71
2022/03/04 01:35:26;;;;;;;10.73;7.37;;;1.60;99.90;;;;;;4988600;28;20223;-70
2022/03/04 01:37:51;;;;;;;11.07;6.80;;;1.60;99.90;;;;;;4997277;28;20200;-70
2022/03/04 01:40:17;;;;;;;9.53;6.40;;;1.60;99.90;;;;;;4985631;28;20237;-72
2022/03/04 01:42:42;;;;;;;10.83;7.60;;;1.60;99.90;;;;;;4985331;28;20197;-70
2022/03/04 01:45:10;;;;;;;12.53;7.57;;;1.60;99.90;;;;;;4993543;28;20241;-70
2022/03/04 01:47:40;;;;;;;10.50;7.10;;;1.70;99.90;;;;;;4984745;28;20200;-68
2022/03/04 01:50:06;;;;;;;11.93;7.83;;;1.70;99.90;;;;;;4995381;28;20699;-70
2022/03/04 01:52:31;;;;;;;16.83;7.93;;;1.70;99.90;;;;;;4995165;28;20218;-71
2022/03/04 01:54:57;;;;;;;13.80;7.57;;;1.80;99.90;;;;;;4985328;28;20329;-70
2022/03/04 01:57:23;;;;;;;11.27;7.50;;;1.80;99.90;;;;;;4989264;28;20203;-70
2022/03/04 01:59:48;;;;;;;10.67;6.37;;;1.90;99.90;;;;;;4994261;28;20262;-72
2022/03/04 02:02:14;;;;;;;20.20;7.57;;;1.80;99.90;;;;;;4985027;28;20660;-77
2022/03/04 02:04:39;;;;;;;13.20;6.37;;;1.90;99.90;;;;;;4983115;28;20307;-72
2022/03/04 02:07:05;;;;;;;9.40;6.23;;;1.90;99.90;;;;;;4984599;28;20196;-72
2022/03/04 02:09:31;;;;;;;11.43;5.90;;;1.90;99.90;;;;;;4984562;28;20216;-71
2022/03/04 02:11:56;;;;;;;9.60;6.53;;;1.80;99.90;;;;;;4990742;28;20276;-69
2022/03/04 02:14:22;;;;;;;9.00;6.47;;;1.80;99.90;;;;;;4992133;28;20205;-73
2022/03/04 02:16:52;;;;;;;15.43;6.80;;;1.90;99.90;;;;;;4988889;28;20181;-72
2022/03/04 02:19:19;;;;;;;13.17;6.87;;;1.90;99.90;;;;;;4985710;28;20673;-74
2022/03/04 02:21:54;;;;;;;9.13;5.67;;;1.90;99.90;;;;;;4992641;28;20184;-72
2022/03/04 02:24:25;;;;;;;9.47;6.30;;;2.00;99.90;;;;;;4978628;28;20408;-71
2022/03/04 02:26:52;;;;;;;7.27;5.87;;;2.00;99.90;;;;;;5016456;28;20253;-72
2022/03/04 02:29:18;;;;;;;10.70;5.83;;;2.00;99.90;;;;;;5015755;28;20226;-71
2022/03/04 02:31:44;;;;;;;7.23;5.90;;;2.00;99.90;;;;;;5008379;28;20183;-71
2022/03/04 02:34:09;;;;;;;12.57;7.10;;;2.00;99.90;;;;;;5012574;28;20256;-71
2022/03/04 02:36:35;;;;;;;8.97;5.90;;;2.00;99.90;;;;;;5011148;28;20557;-69
2022/03/04 02:39:01;;;;;;;8.10;5.00;;;1.90;99.90;;;;;;5012775;28;20205;-70
2022/03/04 02:41:26;;;;;;;10.43;5.43;;;1.90;99.90;;;;;;5019627;28;20264;-70
2022/03/04 02:43:52;;;;;;;6.60;5.90;;;2.00;99.90;;;;;;5002649;28;20270;-70
2022/03/04 02:46:17;;;;;;;9.07;6.43;;;2.00;99.90;;;;;;5012556;28;20218;-69
2022/03/04 02:48:43;;;;;;;12.90;6.17;;;2.00;99.90;;;;;;5018575;28;20625;-69
2022/03/04 02:51:09;;;;;;;9.13;5.97;;;2.00;99.90;;;;;;5014142;28;20257;-68
2022/03/04 02:53:34;;;;;;;11.13;6.43;;;2.10;99.90;;;;;;5002894;28;20201;-68
2022/03/04 02:55:59;;;;;;;13.20;6.47;;;2.10;99.90;;;;;;5015067;28;20196;-69
2022/03/04 02:58:25;;;;;;;14.00;6.07;;;2.10;99.90;;;;;;5007720;28;20200;-68
2022/03/04 03:00:51;;;;;;;11.70;5.57;;;2.20;99.90;;;;;;5016600;28;20296;-69
2022/03/04 03:03:16;;;;;;;6.87;5.63;;;2.20;99.90;;;;;;5008064;28;20200;-69
2022/03/04 03:05:42;;;;;;;6.77;5.37;;;2.30;99.90;;;;;;5023871;28;20922;-69
2022/03/04 03:08:08;;;;;;;11.90;5.60;;;2.40;99.90;;;;;;5021406;28;20206;-69
2022/03/04 03:10:34;;;;;;;9.53;4.47;;;2.40;99.90;;;;;;5012232;28;20273;-69
2022/03/04 03:12:59;;;;;;;11.03;6.20;;;2.50;99.90;;;;;;5017704;28;20196;-69
2022/03/04 03:15:25;;;;;;;12.80;5.93;;;2.50;99.90;;;;;;5021270;28;20214;-69
2022/03/04 03:17:51;;;;;;;6.00;5.23;;;2.60;99.90;;;;;;5007768;28;20544;-69
2022/03/04 03:20:17;;;;;;;9.60;5.67;;;2.60;99.90;;;;;;5011927;28;20247;-69
2022/03/04 03:22:42;;;;;;;9.83;5.60;;;2.70;99.90;;;;;;5010512;28;20290;-69
2022/03/04 03:25:08;;;;;;;6.80;4.70;;;2.80;99.90;;;;;;5013067;28;20790;-68
2022/03/04 03:27:34;;;;;;;9.27;5.00;;;2.80;99.90;;;;;;5021385;28;20204;-69
2022/03/04 03:29:59;;;;;;;9.43;5.00;;;2.90;99.90;;;;;;5017227;28;20680;-74
2022/03/04 03:32:25;;;;;;;8.60;5.60;;;3.00;99.90;;;;;;5011755;28;20218;-72
2022/03/04 03:34:50;;;;;;;8.83;4.90;;;3.00;99.90;;;;;;5016565;28;20214;-72
2022/03/04 03:37:16;;;;;;;9.13;5.70;;;3.00;99.90;;;;;;5017849;28;20207;-73
2022/03/04 03:39:41;;;;;;;13.73;5.30;;;3.10;99.90;;;;;;5015201;28;20552;-73
2022/03/04 03:42:07;;;;;;;11.00;4.90;;;3.10;99.90;;;;;;5005719;28;20285;-73
2022/03/04 03:44:33;;;;;;;10.77;5.17;;;3.00;99.90;;;;;;5017516;28;20605;-73
2022/03/04 03:46:59;;;;;;;8.10;4.80;;;3.00;99.90;;;;;;5014384;28;20199;-72
2022/03/04 03:49:24;;;;;;;8.70;5.00;;;3.00;99.90;;;;;;5015335;28;20204;-72
2022/03/04 03:51:50;;;;;;;8.43;5.10;;;3.10;99.90;;;;;;5004944;28;20188;-73
2022/03/04 03:54:16;;;;;;;12.33;6.00;;;3.10;99.90;;;;;;5015545;28;20278;-72
2022/03/04 03:56:42;;;;;;;9.93;5.20;;;3.10;99.90;;;;;;5006745;28;20226;-72
2022/03/04 03:59:07;;;;;;;11.50;5.67;;;3.10;99.90;;;;;;5000442;28;20194;-73
2022/03/04 04:01:33;;;;;;;16.00;7.13;;;3.10;99.90;;;;;;5017807;28;20191;-72
2022/03/04 04:03:59;;;;;;;8.63;5.87;;;3.10;99.90;;;;;;5019012;28;20204;-73
2022/03/04 04:06:24;;;;;;;9.37;7.23;;;3.10;99.90;;;;;;5006561;28;20203;-72
2022/03/04 04:08:50;;;;;;;9.93;6.20;;;2.90;99.90;;;;;;5013163;28;20298;-73
2022/03/04 04:11:15;;;;;;;11.67;6.67;;;3.00;99.90;;;;;;5018870;28;20222;-73
2022/03/04 04:13:41;;;;;;;15.37;7.00;;;3.00;99.90;;;;;;5014583;28;20223;-72
2022/03/04 04:16:06;;;;;;;9.23;5.93;;;3.10;99.90;;;;;;5006561;28;20200;-72
2022/03/04 04:18:32;;;;;;;8.90;5.77;;;3.10;99.90;;;;;;5017663;28;20191;-71
2022/03/04 04:20:57;;;;;;;11.97;7.70;;;3.20;99.90;;;;;;5006289;28;20270;-71
2022/03/04 04:23:23;;;;;;;12.73;6.37;;;3.20;99.90;;;;;;5013634;28;20694;-71
2022/03/04 04:25:48;;;;;;;12.83;6.73;;;3.30;99.90;;;;;;5006149;28;20724;-72
2022/03/04 04:28:14;;;;;;;12.93;7.30;;;3.30;99.90;;;;;;5017009;28;20203;-71
2022/03/04 04:30:39;;;;;;;7.90;5.67;;;3.30;99.90;;;;;;5006810;28;20212;-68
2022/03/04 04:33:05;;;;;;;13.20;6.13;;;3.30;99.90;;;;;;5015543;28;20298;-68
2022/03/04 04:35:30;;;;;;;10.10;7.00;;;3.40;99.90;;;;;;5024980;28;20249;-68
2022/03/04 04:37:56;;;;;;;14.43;6.20;;;3.40;99.90;;;;;;5005592;28;20204;-72
2022/03/04 04:40:21;;;;;;;10.43;6.70;;;3.40;99.90;;;;;;5011355;28;20187;-72
2022/03/04 04:42:47;;;;;;;11.10;6.10;;;3.40;99.90;;;;;;5017556;28;20640;-71
2022/03/04 04:45:13;;;;;;;9.97;7.00;;;3.40;99.90;;;;;;5014571;28;20199;-70
2022/03/04 04:47:38;;;;;;;7.30;5.33;;;3.40;99.90;;;;;;5023335;28;20320;-72
2022/03/04 04:50:05;;;;;;;9.53;5.03;;;3.40;99.90;;;;;;5020851;28;20305;-73
2022/03/04 04:52:31;;;;;;;8.13;6.33;;;3.30;99.90;;;;;;5015826;28;20309;-71
2022/03/04 04:54:56;;;;;;;11.07;5.70;;;3.30;99.90;;;;;;5021997;28;20282;-74
2022/03/04 04:57:22;;;;;;;10.67;5.40;;;3.30;99.90;;;;;;5011305;28;20195;-79
2022/03/04 04:59:47;;;;;;;8.50;6.20;;;3.30;99.90;;;;;;5017358;28;20188;-68
2022/03/04 05:02:13;;;;;;;9.27;5.40;;;3.30;99.90;;;;;;5010594;28;20384;-73
2022/03/04 05:04:39;;;;;;;5.43;4.50;;;3.20;99.90;;;;;;5008854;28;20192;-68
2022/03/04 05:07:04;;;;;;;8.00;4.63;;;3.20;99.90;;;;;;5014873;28;20574;-79
2022/03/04 05:09:30;;;;;;;6.10;4.43;;;3.10;99.90;;;;;;5014485;28;20238;-73
2022/03/04 05:11:55;;;;;;;5.90;4.50;;;3.10;99.90;;;;;;5008172;28;20218;-71
2022/03/04 05:14:21;;;;;;;6.30;4.30;;;3.10;99.90;;;;;;5015583;28;20580;-79
2022/03/04 05:16:46;;;;;;;5.13;3.27;;;3.10;99.90;;;;;;5010601;28;20615;-73
2022/03/04 05:19:12;;;;;;;10.10;3.67;;;3.00;99.90;;;;;;5015284;28;20737;-73
2022/03/04 05:21:37;;;;;;;5.30;3.30;;;3.00;99.90;;;;;;5008281;28;20180;-78
2022/03/04 05:24:06;;;;;;;7.47;3.50;;;3.00;99.90;;;;;;5016283;28;20674;-67
2022/03/04 05:26:36;;;;;;;6.97;3.70;;;2.90;99.90;;;;;;5005835;28;20210;-70
2022/03/04 05:29:04;;;;;;;5.63;2.97;;;2.80;99.90;;;;;;5005660;28;20234;-73
2022/03/04 05:31:30;;;;;;;5.83;3.57;;;2.80;99.90;;;;;;5015181;28;20196;-74
2022/03/04 05:33:56;;;;;;;7.53;3.77;;;2.70;99.90;;;;;;5012290;28;20207;-72
2022/03/04 05:36:23;;;;;;;4.97;3.20;;;2.70;99.90;;;;;;5016009;28;20187;-80
2022/03/04 05:38:50;;;;;;;3.97;3.23;;;2.70;99.90;;;;;;5010332;28;20245;-74
2022/03/04 05:41:17;;;;;;;7.23;3.17;;;2.60;99.90;;;;;;5011215;28;20196;-83
2022/03/04 05:43:43;;;;;;;3.67;3.23;;;2.50;99.90;;;;;;5013679;28;20231;-73
2022/03/04 05:46:09;;;;;;;4.93;3.97;;;2.50;99.90;;;;;;5012133;28;20198;-74
2022/03/04 05:48:34;;;;;;;11.40;4.43;;;2.50;99.90;;;;;;5012309;28;20200;-76
2022/03/04 05:51:00;;;;;;;4.10;3.70;;;2.50;99.90;;;;;;5015203;28;20685;-71
2022/03/04 05:53:26;;;;;;;5.70;3.10;;;2.50;99.90;;;;;;5008644;28;20192;-72
2022/03/04 05:55:52;;;;;;;5.17;3.47;;;2.50;99.90;;;;;;5013158;28;20184;-71
2022/03/04 05:58:17;;;;;;;5.53;2.90;;;2.50;99.90;;;;;;5012040;28;20195;-70
2022/03/04 06:00:43;;;;;;;4.50;3.40;;;2.50;99.90;;;;;;5016307;28;20250;-76
2022/03/04 06:03:08;;;;;;;6.37;4.50;;;2.50;99.90;;;;;;5012603;28;20251;-80
2022/03/04 06:05:34;;;;;;;6.47;4.30;;;2.50;99.90;;;;;;5014006;28;20511;-73
2022/03/04 06:07:59;;;;;;;6.97;3.50;;;2.50;99.90;;;;;;5013303;28;20218;-74
2022/03/04 06:10:26;;;;;;;6.07;3.33;;;2.50;99.90;;;;;;5009657;28;20219;-80
2022/03/04 06:12:52;;;;;;;5.87;3.30;;;2.50;99.90;;;;;;5011101;28;20207;-76
2022/03/04 06:15:18;;;;;;;6.00;4.50;;;2.50;99.90;;;;;;5005049;28;20922;-73
2022/03/04 06:17:51;;;;;;;6.70;3.40;;;2.50;99.90;;;;;;5003729;28;20294;-75
2022/03/04 06:20:17;;;;;;;3.90;3.37;;;2.50;99.90;;;;;;5012292;28;20191;-82
2022/03/04 06:22:43;;;;;;;7.90;3.63;;;2.50;99.90;;;;;;5013338;28;20203;-71
2022/03/04 06:25:10;;;;;;;6.87;3.83;;;2.50;99.90;;;;;;5010334;28;20246;-75
2022/03/04 06:27:36;;;;;;;3.10;2.83;;;2.50;99.90;;;;;;5009876;28;20207;-66
2022/03/04 06:30:03;;;;;;;5.50;3.47;;;2.60;99.90;;;;;;4997003;28;20262;-65
2022/03/04 06:32:28;;;;;;;5.87;2.77;;;2.60;99.90;;;;;;5016403;28;20232;-65
2022/03/04 06:34:54;;;;;;;7.43;3.60;;;2.60;99.90;;;;;;5015414;28;20643;-71
2022/03/04 06:37:19;;;;;;;9.03;4.00;;;2.60;99.90;;;;;;5015043;28;20204;-71
2022/03/04 06:39:45;;;;;;;8.90;3.63;;;2.60;99.90;;;;;;5017612;28;20229;-73
2022/03/04 06:42:10;;;;;;;5.60;3.53;;;2.60;99.90;;;;;;5015975;28;20206;-72
2022/03/04 06:44:36;;;;;;;4.40;3.33;;;2.70;99.90;;;;;;5018326;28;20322;-72
2022/03/04 06:47:01;;;;;;;4.57;3.37;;;2.70;99.90;;;;;;5016856;28;20215;-70
2022/03/04 06:49:27;;;;;;;5.53;3.90;;;2.70;99.90;;;;;;5019406;28;20215;-71
2022/03/04 06:51:52;;;;;;;6.67;3.03;;;2.80;99.90;;;;;;5015340;28;20200;-72
2022/03/04 06:54:18;;;;;;;4.87;3.23;;;2.80;99.90;;;;;;5017344;28;20799;-72
2022/03/04 06:56:43;;;;;;;7.23;2.83;;;2.80;99.90;;;;;;5015476;28;20282;-73
2022/03/04 06:59:09;;;;;;;7.70;3.23;;;2.80;99.90;;;;;;5016530;28;20187;-74
2022/03/04 07:01:34;;;;;;;7.03;2.80;;;2.80;99.90;;;;;;5012777;28;20207;-72
2022/03/04 07:04:00;;;;;;;3.70;2.87;;;2.80;99.90;;;;;;5017314;28;20245;-80
2022/03/04 07:06:25;;;;;;;4.73;2.50;;;2.80;99.90;;;;;;5012890;28;20203;-72
2022/03/04 07:08:51;;;;;;;8.93;2.93;;;2.80;99.90;;;;;;5017902;28;20267;-78
2022/03/04 07:11:16;;;;;;;2.47;2.33;;;2.80;99.90;;;;;;5014128;28;20215;-71
2022/03/04 07:13:42;;;;;;;4.10;2.90;;;2.90;99.90;;;;;;5022339;28;20591;-69
2022/03/04 07:16:07;;;;;;;3.07;2.33;;;2.80;99.90;;;;;;5012745;28;20860;-69
2022/03/04 07:18:33;;;;;;;2.70;2.50;;;2.80;99.90;;;;;;4999895;28;20192;-68
2022/03/04 07:20:59;;;;;;;7.17;3.47;;;2.80;99.90;;;;;;4988148;28;20192;-68
2022/03/04 07:23:25;;;;;;;5.70;3.67;;;2.70;99.90;;;;;;5022746;28;20187;-70
2022/03/04 07:25:50;;;;;;;5.83;2.83;;;2.70;99.90;;;;;;5007219;28;20596;-69
2022/03/04 07:28:17;;;;;;;6.67;3.50;;;2.80;99.90;;;;;;5023077;28;20199;-69
2022/03/04 07:30:43;;;;;;;7.47;3.00;;;2.80;99.90;;;;;;5017047;28;20219;-70
2022/03/04 07:33:08;;;;;;;8.13;3.00;;;2.80;99.90;;;;;;5016872;28;20614;-75
2022/03/04 07:35:34;;;;;;;5.57;3.23;;;2.90;99.90;;;;;;5007506;28;20239;-76
2022/03/04 07:37:59;;;;;;;4.67;3.20;;;2.90;99.90;;;;;;5021216;28;20208;-77
2022/03/04 07:40:25;;;;;;;6.87;3.30;;;2.80;99.90;;;;;;5007672;28;20287;-77
2022/03/04 07:42:51;;;;;;;4.70;3.20;;;2.90;99.90;;;;;;5021220;28;20574;-77
2022/03/04 07:45:16;;;;;;;7.27;3.30;;;2.90;99.90;;;;;;5015678;28;20238;-77
2022/03/04 07:47:43;;;;;;;5.27;3.30;;;2.90;99.90;;;;;;5019557;28;20207;-77
2022/03/04 07:50:13;;;;;;;5.27;3.33;;;3.10;99.90;;;;;;5006928;28;20208;-76
2022/03/04 07:52:39;;;;;;;3.33;2.97;;;3.10;99.90;;;;;;5019395;28;20203;-76
2022/03/04 07:55:07;;;;;;;7.03;3.30;;;3.10;99.90;;;;;;5019649;28;20191;-77
2022/03/04 07:57:33;;;;;;;5.57;3.50;;;3.10;99.90;;;;;;5000373;28;20767;-77
2022/03/04 07:59:58;;;;;;;4.97;3.10;;;3.20;99.90;;;;;;5025366;28;20282;-77
2022/03/04 08:02:24;;;;;;;5.80;3.30;;;3.20;99.90;;;;;;5016869;28;20367;-71
2022/03/04 08:04:50;;;;;;;5.17;3.67;;;3.20;99.90;;;;;;5006854;28;20203;-71
2022/03/04 08:07:17;;;;;;;7.43;3.47;;;3.30;99.90;;;;;;5008531;28;20207;-71
2022/03/04 08:09:42;;;;;;;6.10;2.97;;;3.40;99.90;;;;;;5006937;28;20270;-70
2022/03/04 08:12:09;;;;;;;6.40;2.97;;;3.40;99.90;;;;;;5014586;28;20290;-72
2022/03/04 08:14:34;;;;;;;6.40;3.87;;;3.40;99.90;;;;;;5019027;28;20191;-72
2022/03/04 08:17:00;;;;;;;4.43;3.40;;;3.50;99.90;;;;;;5013319;28;20656;-70
2022/03/04 08:19:25;;;;;;;6.50;3.47;;;3.60;99.90;;;;;;5021535;28;20195;-70
2022/03/04 08:21:51;;;;;;;4.70;4.17;;;3.60;99.90;;;;;;5018160;28;20207;-72
2022/03/04 08:24:16;;;;;;;5.70;3.47;;;3.60;99.90;;;;;;5004315;28;20682;-72
2022/03/04 08:26:42;;;;;;;5.03;3.17;;;3.70;99.90;;;;;;5026236;28;20546;-72
2022/03/04 08:29:11;;;;;;;8.43;3.53;;;3.60;99.90;;;;;;5023711;28;20202;-72
2022/03/04 08:31:37;;;;;;;8.33;4.07;;;3.60;99.90;;;;;;5011824;28;20218;-71
2022/03/04 08:34:03;;;;;;;4.10;3.17;;;3.70;99.90;;;;;;5007622;28;20192;-72
2022/03/04 08:36:29;;;;;;;3.80;3.33;;;3.70;99.90;;;;;;5014405;28;20184;-72
2022/03/04 08:38:55;;;;;;;7.33;3.33;;;3.70;99.90;;;;;;5009859;28;20199;-71
2022/03/04 08:41:21;;;;;;;3.90;3.50;;;3.70;99.90;;;;;;5013025;28;20218;-71
2022/03/04 08:43:51;;;;;;;5.40;4.20;;;3.70;99.90;;;;;;5005187;28;20275;-71
2022/03/04 08:46:17;;;;;;;6.20;3.33;;;3.70;99.90;;;;;;5013894;28;20196;-71
2022/03/04 08:48:43;;;;;;;10.80;4.13;;;3.70;99.90;;;;;;5004183;28;20602;-71
2022/03/04 08:51:08;;;;;;;5.83;3.90;;;3.60;99.90;;;;;;5016929;28;20208;-71
2022/03/04 08:53:34;;;;;;;4.60;4.00;;;3.50;99.90;;;;;;5014978;28;20199;-71
2022/03/04 08:56:00;;;;;;;7.13;3.43;;;3.60;99.90;;;;;;5013757;28;20449;-70
2022/03/04 08:58:25;;;;;;;4.43;3.87;;;3.60;99.90;;;;;;5013072;28;20203;-71
2022/03/04 09:00:51;;;;;;;4.10;2.97;;;3.60;99.90;;;;;;5012507;28;20209;-71
2022/03/04 09:03:16;;;;;;;6.43;3.50;;;3.70;99.90;;;;;;5010263;28;20223;-70
2022/03/04 09:05:42;;;;;;;6.10;4.07;;;3.80;99.90;;;;;;5012829;28;20214;-70
2022/03/04 09:08:07;;;;;;;8.37;3.80;;;3.90;99.90;;;;;;5013200;28;20207;-69
2022/03/04 09:10:33;;;;;;;3.07;2.77;;;3.90;99.90;;;;;;5012821;28;20610;-71
2022/03/04 09:12:59;;;;;;;6.40;3.17;;;4.00;99.90;;;;;;5023960;28;20187;-69
2022/03/04 09:15:24;;;;;;;4.67;3.40;;;4.00;99.90;;;;;;5006177;28;20214;-71
2022/03/04 09:17:50;;;;;;;8.30;4.03;;;4.10;99.90;;;;;;5018958;28;20693;-71
2022/03/04 09:20:19;;;;;;;5.00;3.33;;;4.20;99.90;;;;;;5012429;28;20199;-71
2022/03/04 09:22:45;;;;;;;5.20;3.07;;;4.20;99.90;;;;;;5017695;28;20230;-71
2022/03/04 09:25:11;;;;;;;7.10;3.60;;;4.20;99.90;;;;;;5006323;28;20235;-72
2022/03/04 09:27:36;;;;;;;10.33;3.57;;;4.30;99.90;;;;;;5011672;28;20257;-71
2022/03/04 09:30:02;;;;;;;3.83;3.10;;;4.30;99.90;;;;;;5013992;28;20218;-71
2022/03/04 09:32:28;;;;;;;6.73;3.00;;;4.40;99.90;;;;;;5005591;28;20677;-71
2022/03/04 09:34:53;;;;;;;3.93;2.43;;;4.50;99.90;;;;;;5012959;28;20199;-71
2022/03/04 09:37:19;;;;;;;5.17;2.60;;;4.60;99.90;;;;;;5005599;28;20790;-71
2022/03/04 09:39:44;;;;;;;5.17;2.73;;;4.60;99.90;;;;;;5003526;28;20347;-70
2022/03/04 09:42:11;;;;;;;3.23;2.93;;;4.70;99.90;;;;;;5005499;28;20555;-71
2022/03/04 09:44:38;;;;;;;4.20;3.80;;;4.80;99.90;;;;;;5011256;28;20313;-70
2022/03/04 09:47:04;;;;;;;6.73;3.60;;;4.90;99.90;;;;;;5015662;28;20636;-70
2022/03/04 09:49:35;;;;;;;5.17;3.73;;;5.00;99.90;;;;;;5015008;28;20218;-70
2022/03/04 09:52:02;;;;;;;4.40;3.60;;;5.10;99.90;;;;;;5015079;28;20187;-67
2022/03/04 09:54:28;;;;;;;5.80;3.90;;;5.30;99.90;;;;;;5016512;28;20195;-69
2022/03/04 09:56:55;;;;;;;7.87;3.43;;;5.10;99.90;;;;;;5010441;28;20195;-67
2022/03/04 09:59:20;;;;;;;6.70;3.63;;;5.20;99.90;;;;;;5008582;28;20911;-70
2022/03/04 10:01:47;;;;;;;7.40;3.50;;;5.20;99.90;;;;;;5013807;28;20240;-69
2022/03/04 10:04:12;;;;;;;4.63;3.10;;;5.20;99.90;;;;;;5012882;28;20207;-75
2022/03/04 10:06:38;;;;;;;4.53;3.70;;;5.30;99.90;;;;;;5017821;28;20184;-74
2022/03/04 10:09:04;;;;;;;5.63;4.07;;;5.20;99.90;;;;;;5014325;28;20196;-72
2022/03/04 10:11:33;;;;;;;5.57;3.97;;;4.90;99.90;;;;;;5018959;28;20674;-70
2022/03/04 10:14:00;;;;;;;3.40;3.10;;;4.90;99.90;;;;;;5018069;28;20814;-71
2022/03/04 10:16:31;;;;;;;4.63;3.50;;;4.90;99.90;;;;;;5018576;28;20187;-69
2022/03/04 10:19:13;;;;;;;6.73;3.87;;;4.80;99.90;;;;;;5005553;28;20658;-71
2022/03/04 10:21:51;;;;;;;5.63;4.33;;;4.90;99.90;;;;;;5002889;28;20187;-70
2022/03/04 10:24:36;;;;;;;3.90;2.70;;;4.80;99.90;;;;;;5018645;28;20214;-84
2022/03/04 10:27:15;;;;;;;5.80;2.80;;;4.70;99.90;;;;;;5019896;28;20295;-82
2022/03/04 10:29:46;;;;;;;3.63;2.57;;;4.60;99.90;;;;;;5017046;28;20218;-82
2022/03/04 10:32:26;;;;;;;3.60;2.33;;;4.60;99.90;;;;;;5012996;28;20219;-81
2022/03/04 10:34:51;;;;;;;2.43;1.47;;;4.50;99.90;;;;;;5009449;28;20206;-82
2022/03/04 10:37:20;;;;;;;3.37;2.20;;;4.60;99.90;;;;;;5019825;28;20196;-70
2022/03/04 10:39:59;;;;;;;3.33;2.23;;;4.50;99.90;;;;;;5016822;28;20198;-72
2022/03/04 10:42:45;;;;;;;7.37;2.90;;;4.30;99.90;;;;;;5011155;28;20203;-82
2022/03/04 10:45:14;;;;;;;4.00;3.07;;;4.40;99.90;;;;;;5020229;28;20658;-83
2022/03/04 10:47:52;;;;;;;4.23;2.63;;;4.30;99.90;;;;;;5022262;28;20214;-76
2022/03/04 10:50:36;;;;;;;5.47;3.00;;;4.20;99.90;;;;;;5013159;28;20207;-85
2022/03/04 10:53:08;;;;;;;8.13;2.87;;;4.30;99.90;;;;;;5016214;28;20199;-75
2022/03/04 10:55:45;;;;;;;3.07;2.77;;;4.40;99.90;;;;;;4989439;28;20185;-83
2022/03/04 10:58:15;;;;;;;4.03;3.50;;;4.60;99.90;;;;;;5004969;28;20575;-83
2022/03/04 11:00:51;;;;;;;4.20;3.40;;;4.60;99.90;;;;;;5007670;28;20242;-86
2022/03/04 11:03:21;;;;;;;5.27;3.30;;;4.50;99.90;;;;;;5013284;28;20183;-84
2022/03/04 11:05:48;;;;;;;5.13;4.07;;;4.60;99.90;;;;;;5022148;28;20188;-85
2022/03/04 11:08:15;;;;;;;7.37;4.27;;;4.60;99.90;;;;;;5015323;28;20195;-79
2022/03/04 11:10:40;;;;;;;5.23;3.00;;;4.60;99.90;;;;;;5017266;28;20219;-76
2022/03/04 11:13:10;;;;;;;4.33;3.97;;;4.50;99.90;;;;;;5021646;28;20730;-76
2022/03/04 11:15:36;;;;;;;6.33;4.27;;;4.60;99.90;;;;;;5008619;28;20199;-70
2022/03/04 11:18:05;;;;;;;6.83;3.27;;;4.70;99.90;;;;;;5018231;28;20283;-89
2022/03/04 11:20:31;;;;;;;6.17;2.30;;;4.70;99.90;;;;;;5018190;28;20208;-87
2022/03/04 11:22:57;;;;;;;2.97;2.60;;;4.70;99.90;;;;;;5020701;28;20203;-86
2022/03/04 11:25:22;;;;;;;4.03;2.40;;;4.70;99.90;;;;;;5010526;28;20258;-84
2022/03/04 11:27:51;;;;;;;5.50;2.43;;;4.90;99.90;;;;;;5023095;28;20203;-87
2022/03/04 11:30:42;;;;;;;6.73;2.67;;;4.80;99.90;;;;;;5018505;28;20759;-86
2022/03/04 11:33:21;;;;;;;3.07;2.87;;;4.70;99.90;;;;;;5014214;28;20175;-69
2022/03/04 11:36:12;;;;;;;5.13;3.37;;;4.80;99.90;;;;;;5017278;28;20263;-69
2022/03/04 11:38:44;;;;;;;6.13;3.77;;;5.10;99.90;;;;;;5019565;28;20200;-70
2022/03/04 11:41:30;;;;;;;6.77;4.07;;;5.20;99.90;;;;;;5009602;28;20209;-70
2022/03/04 11:44:13;;;;;;;4.83;4.43;;;5.30;99.90;;;;;;5015369;28;20199;-70
2022/03/04 11:46:55;;;;;;;3.80;3.43;;;5.40;99.90;;;;;;5001562;28;20215;-70
2022/03/04 11:49:32;;;;;;;5.00;4.17;;;5.40;99.80;;;;;;5010329;28;20191;-70
2022/03/04 11:52:10;;;;;;;4.90;4.47;;;5.50;99.90;;;;;;5007401;28;20199;-68
2022/03/04 11:54:48;;;;;;;5.40;4.57;;;5.60;99.70;;;;;;5005357;28;20243;-69
2022/03/04 11:57:29;;;;;;;4.77;4.37;;;5.50;99.60;;;;;;4997087;28;20691;-69
2022/03/04 11:59:58;;;;;;;6.33;4.67;;;5.50;99.80;;;;;;4995106;28;20569;-68
2022/03/04 12:02:29;;;;;;;5.07;4.67;;;5.60;98.80;;;;;;5013456;28;20201;-68
2022/03/04 12:05:21;;;;;;;5.00;4.50;;;5.50;99.00;;;;;;5006443;28;20207;-69
2022/03/04 12:07:54;;;;;;;4.40;4.03;;;5.60;99.10;;;;;;5009924;28;20594;-70
2022/03/04 12:10:21;;;;;;;5.93;4.20;;;5.50;99.00;;;;;;5010835;28;20246;-70
2022/03/04 12:12:59;;;;;;;4.47;3.60;;;5.70;99.40;;;;;;5008464;28;20207;-70
2022/03/04 12:15:25;;;;;;;5.43;4.07;;;5.70;98.50;;;;;;5013676;28;20192;-70
2022/03/04 12:18:03;;;;;;;5.97;4.73;;;5.80;98.70;;;;;;5022561;28;20204;-70
2022/03/04 12:20:52;;;;;;;4.97;4.43;;;5.90;98.80;;;;;;5012383;28;20198;-70
2022/03/04 12:23:27;;;;;;;3.33;3.13;;;5.90;98.80;;;;;;5010274;28;20249;-69
2022/03/04 12:25:59;;;;;;;2.33;2.10;;;6.00;98.80;;;;;;5014889;28;20239;-70
2022/03/04 12:28:32;;;;;;;3.57;2.20;;;6.00;98.30;;;;;;5008950;28;20200;-71
2022/03/04 12:31:00;;;;;;;7.50;2.60;;;5.90;98.10;;;;;;4990816;28;20610;-71
2022/03/04 12:33:27;;;;;;;1.80;1.70;;;5.90;98.60;;;;;;5016771;28;20206;-69
2022/03/04 12:35:57;;;;;;;3.50;2.43;;;5.90;98.40;;;;;;5005791;28;20192;-70
2022/03/04 12:38:27;;;;;;;8.90;4.50;;;5.90;97.80;;;;;;5017312;28;20215;-70
2022/03/04 12:40:59;;;;;;;3.13;2.57;;;6.00;98.10;;;;;;5005353;28;20207;-70
2022/03/04 12:43:25;;;;;;;2.70;2.50;;;6.90;97.90;;;;;;5012885;28;20216;-69
2022/03/04 12:45:52;;;;;;;2.77;1.90;;;8.10;96.20;;;;;;5005866;28;20200;-69
2022/03/04 12:48:19;;;;;;;4.73;2.30;;;8.80;95.20;;;;;;5003260;28;20204;-69
2022/03/04 12:50:44;;;;;;;2.37;2.17;;;8.90;93.00;;;;;;5005301;28;20365;-69
2022/03/04 12:53:21;;;;;;;5.97;1.90;;;8.70;92.70;;;;;;5016381;28;20299;-70
2022/03/04 12:55:55;;;;;;;2.43;1.87;;;8.30;91.80;;;;;;5001518;28;20185;-69